sensor_id;sensor_type;location;lat;lon;timestamp;temperature;humidity
52643;DHT22;38531;53.296;6.614;2022-11-28T00:00:25;6.20;99.90
52643;DHT22;38531;53.296;6.614;2022-11-28T00:02:50;6.20;99.90
52643;DHT22;38531;53.296;6.614;2022-11-28T00:05:16;5.90;99.90
52643;DHT22;38531;53.296;6.614;2022-11-28T00:07:42;5.90;99.90
52643;DHT22;38531;53.296;6.614;2022-11-28T00:10:08;5.90;99.90
52643;DHT22;38531;53.296;6.614;2022-11-28T00:12:35;5.90;99.90
52643;DHT22;38531;53.296;6.614;2022-11-28T00:15:01;6.80;99.90
52643;DHT22;38531;53.296;6.614;2022-11-28T00:17:27;4.90;99.90
52643;DHT22;38531;53.296;6.614;2022-11-28T00:19:53;5.90;99.90
52643;DHT22;38531;53.296;6.614;2022-11-28T00:22:18;6.80;99.90
52643;DHT22;38531;53.296;6.614;2022-11-28T00:24:44;6.40;99.90
52643;DHT22;38531;53.296;6.614;2022-11-28T00:27:09;6.10;99.90
52643;DHT22;38531;53.296;6.614;2022-11-28T00:29:35;5.90;99.90
52643;DHT22;38531;53.296;6.614;2022-11-28T00:32:02;6.20;99.90
52643;DHT22;38531;53.296;6.614;2022-11-28T00:34:28;5.90;99.90
52643;DHT22;38531;53.296;6.614;2022-11-28T00:36:54;6.80;99.90
52643;DHT22;38531;53.296;6.614;2022-11-28T00:39:19;6.60;99.90
52643;DHT22;38531;53.296;6.614;2022-11-28T00:41:45;6.80;99.90
52643;DHT22;38531;53.296;6.614;2022-11-28T00:44:11;6.40;99.90
52643;DHT22;38531;53.296;6.614;2022-11-28T00:46:37;6.40;99.90
52643;DHT22;38531;53.296;6.614;2022-11-28T00:49:03;5.90;99.90
52643;DHT22;38531;53.296;6.614;2022-11-28T00:51:30;5.90;99.90
52643;DHT22;38531;53.296;6.614;2022-11-28T00:53:58;6.70;99.90
52643;DHT22;38531;53.296;6.614;2022-11-28T00:56:30;6.60;99.90
52643;DHT22;38531;53.296;6.614;2022-11-28T00:58:56;6.50;99.90
52643;DHT22;38531;53.296;6.614;2022-11-28T01:01:26;6.60;99.90
52643;DHT22;38531;53.296;6.614;2022-11-28T01:03:54;6.50;99.90
52643;DHT22;38531;53.296;6.614;2022-11-28T01:06:32;7.10;99.90
52643;DHT22;38531;53.296;6.614;2022-11-28T01:09:00;5.90;99.90
52643;DHT22;38531;53.296;6.614;2022-11-28T01:11:27;6.50;99.90
52643;DHT22;38531;53.296;6.614;2022-11-28T01:13:59;5.90;99.90
52643;DHT22;38531;53.296;6.614;2022-11-28T01:16:25;5.90;99.90
52643;DHT22;38531;53.296;6.614;2022-11-28T01:18:51;6.20;99.90
52643;DHT22;38531;53.296;6.614;2022-11-28T01:21:17;5.20;99.90
52643;DHT22;38531;53.296;6.614;2022-11-28T01:23:43;6.40;99.90
52643;DHT22;38531;53.296;6.614;2022-11-28T01:26:13;6.60;99.90
52643;DHT22;38531;53.296;6.614;2022-11-28T01:28:39;6.30;99.90
52643;DHT22;38531;53.296;6.614;2022-11-28T01:31:08;6.50;99.90
52643;DHT22;38531;53.296;6.614;2022-11-28T01:33:34;6.20;99.90
52643;DHT22;38531;53.296;6.614;2022-11-28T01:36:00;5.10;99.90
52643;DHT22;38531;53.296;6.614;2022-11-28T01:38:27;6.90;99.90
52643;DHT22;38531;53.296;6.614;2022-11-28T01:40:54;6.80;99.90
52643;DHT22;38531;53.296;6.614;2022-11-28T01:43:21;6.00;99.90
52643;DHT22;38531;53.296;6.614;2022-11-28T01:45:47;6.70;99.90
52643;DHT22;38531;53.296;6.614;2022-11-28T01:48:16;4.90;99.90
52643;DHT22;38531;53.296;6.614;2022-11-28T01:50:43;6.60;99.90
52643;DHT22;38531;53.296;6.614;2022-11-28T01:53:11;7.20;99.90
52643;DHT22;38531;53.296;6.614;2022-11-28T01:55:42;6.00;99.90
52643;DHT22;38531;53.296;6.614;2022-11-28T01:58:11;6.00;99.90
52643;DHT22;38531;53.296;6.614;2022-11-28T02:00:37;6.90;99.90
52643;DHT22;38531;53.296;6.614;2022-11-28T02:03:11;4.60;99.90
52643;DHT22;38531;53.296;6.614;2022-11-28T02:05:37;6.60;99.90
52643;DHT22;38531;53.296;6.614;2022-11-28T02:08:04;6.00;99.90
52643;DHT22;38531;53.296;6.614;2022-11-28T02:21:22;6.10;99.90
52643;DHT22;38531;53.296;6.614;2022-11-28T02:43:04;6.80;99.90
52643;DHT22;38531;53.296;6.614;2022-11-28T02:48:28;6.10;99.90
52643;DHT22;38531;53.296;6.614;2022-11-28T02:51:02;6.10;99.90
52643;DHT22;38531;53.296;6.614;2022-11-28T02:53:31;6.10;99.90
52643;DHT22;38531;53.296;6.614;2022-11-28T02:55:58;6.10;99.90
52643;DHT22;38531;53.296;6.614;2022-11-28T02:58:25;6.30;99.90
52643;DHT22;38531;53.296;6.614;2022-11-28T03:00:51;7.00;99.90
52643;DHT22;38531;53.296;6.614;2022-11-28T03:03:39;7.30;99.90
52643;DHT22;38531;53.296;6.614;2022-11-28T03:06:17;6.10;99.90
52643;DHT22;38531;53.296;6.614;2022-11-28T03:09:01;6.10;99.90
52643;DHT22;38531;53.296;6.614;2022-11-28T03:11:48;6.00;99.90
52643;DHT22;38531;53.296;6.614;2022-11-28T03:14:51;6.20;99.90
52643;DHT22;38531;53.296;6.614;2022-11-28T03:20:23;6.10;99.90
52643;DHT22;38531;53.296;6.614;2022-11-28T03:23:01;6.60;99.90
52643;DHT22;38531;53.296;6.614;2022-11-28T03:25:56;6.30;99.90
52643;DHT22;38531;53.296;6.614;2022-11-28T03:31:15;6.40;99.90
52643;DHT22;38531;53.296;6.614;2022-11-28T03:33:46;6.10;99.90
52643;DHT22;38531;53.296;6.614;2022-11-28T03:36:23;6.60;99.90
52643;DHT22;38531;53.296;6.614;2022-11-28T03:38:58;6.90;99.90
52643;DHT22;38531;53.296;6.614;2022-11-28T03:41:38;6.60;99.90
52643;DHT22;38531;53.296;6.614;2022-11-28T03:44:13;6.10;99.90
52643;DHT22;38531;53.296;6.614;2022-11-28T03:46:45;6.30;99.90
52643;DHT22;38531;53.296;6.614;2022-11-28T03:49:17;6.10;99.90
52643;DHT22;38531;53.296;6.614;2022-11-28T03:51:58;6.60;99.90
52643;DHT22;38531;53.296;6.614;2022-11-28T03:54:41;6.30;99.90
52643;DHT22;38531;53.296;6.614;2022-11-28T03:59:51;6.20;99.90
52643;DHT22;38531;53.296;6.614;2022-11-28T04:02:36;6.20;99.90
52643;DHT22;38531;53.296;6.614;2022-11-28T04:08:14;6.20;99.90
52643;DHT22;38531;53.296;6.614;2022-11-28T04:18:57;6.20;99.90
52643;DHT22;38531;53.296;6.614;2022-11-28T04:24:04;6.20;99.90
52643;DHT22;38531;53.296;6.614;2022-11-28T04:26:35;6.20;99.90
52643;DHT22;38531;53.296;6.614;2022-11-28T04:29:07;6.90;99.90
52643;DHT22;38531;53.296;6.614;2022-11-28T04:31:35;6.20;99.90
52643;DHT22;38531;53.296;6.614;2022-11-28T04:34:06;5.40;99.90
52643;DHT22;38531;53.296;6.614;2022-11-28T04:36:34;6.30;99.90
52643;DHT22;38531;53.296;6.614;2022-11-28T04:39:05;7.20;99.90
52643;DHT22;38531;53.296;6.614;2022-11-28T04:42:22;6.90;99.90
52643;DHT22;38531;53.296;6.614;2022-11-28T04:44:45;6.30;99.90
52643;DHT22;38531;53.296;6.614;2022-11-28T04:47:11;6.30;99.90
52643;DHT22;38531;53.296;6.614;2022-11-28T04:49:37;6.30;99.90
52643;DHT22;38531;53.296;6.614;2022-11-28T04:52:11;6.70;99.90
52643;DHT22;38531;53.296;6.614;2022-11-28T04:55:02;6.30;99.90
52643;DHT22;38531;53.296;6.614;2022-11-28T04:57:37;6.30;99.90
52643;DHT22;38531;53.296;6.614;2022-11-28T05:00:16;6.30;99.90
52643;DHT22;38531;53.296;6.614;2022-11-28T05:02:44;6.40;99.90
52643;DHT22;38531;53.296;6.614;2022-11-28T05:05:15;6.30;99.90
52643;DHT22;38531;53.296;6.614;2022-11-28T05:07:41;6.40;99.90
52643;DHT22;38531;53.296;6.614;2022-11-28T05:10:08;6.80;99.90
52643;DHT22;38531;53.296;6.614;2022-11-28T05:12:35;6.40;99.90
52643;DHT22;38531;53.296;6.614;2022-11-28T05:15:01;7.40;99.90
52643;DHT22;38531;53.296;6.614;2022-11-28T05:17:26;6.40;99.90
52643;DHT22;38531;53.296;6.614;2022-11-28T05:19:52;6.40;99.90
52643;DHT22;38531;53.296;6.614;2022-11-28T05:22:18;7.40;99.90
52643;DHT22;38531;53.296;6.614;2022-11-28T05:24:43;6.50;99.90
52643;DHT22;38531;53.296;6.614;2022-11-28T05:27:09;6.30;99.90
52643;DHT22;38531;53.296;6.614;2022-11-28T05:29:36;6.70;99.90
52643;DHT22;38531;53.296;6.614;2022-11-28T05:32:02;7.30;99.90
52643;DHT22;38531;53.296;6.614;2022-11-28T05:34:28;6.60;99.90
52643;DHT22;38531;53.296;6.614;2022-11-28T05:36:58;6.60;99.90
52643;DHT22;38531;53.296;6.614;2022-11-28T05:39:24;6.60;99.90
52643;DHT22;38531;53.296;6.614;2022-11-28T05:41:51;6.70;99.90
52643;DHT22;38531;53.296;6.614;2022-11-28T05:44:18;7.20;99.90
52643;DHT22;38531;53.296;6.614;2022-11-28T05:46:44;6.70;99.90
52643;DHT22;38531;53.296;6.614;2022-11-28T05:49:10;5.70;99.90
52643;DHT22;38531;53.296;6.614;2022-11-28T05:51:35;6.80;99.90
52643;DHT22;38531;53.296;6.614;2022-11-28T05:54:01;5.20;99.90
52643;DHT22;38531;53.296;6.614;2022-11-28T05:56:27;7.70;99.90
52643;DHT22;38531;53.296;6.614;2022-11-28T05:58:53;7.80;99.90
52643;DHT22;38531;53.296;6.614;2022-11-28T06:01:24;7.00;99.90
52643;DHT22;38531;53.296;6.614;2022-11-28T06:03:50;7.80;99.90
52643;DHT22;38531;53.296;6.614;2022-11-28T06:06:23;7.60;99.90
52643;DHT22;38531;53.296;6.614;2022-11-28T06:08:50;6.90;99.90
52643;DHT22;38531;53.296;6.614;2022-11-28T06:11:17;7.20;99.90
52643;DHT22;38531;53.296;6.614;2022-11-28T06:13:44;7.30;99.90
52643;DHT22;38531;53.296;6.614;2022-11-28T06:16:13;7.00;99.90
52643;DHT22;38531;53.296;6.614;2022-11-28T06:18:39;7.90;99.90
52643;DHT22;38531;53.296;6.614;2022-11-28T06:21:07;7.60;99.90
52643;DHT22;38531;53.296;6.614;2022-11-28T06:23:34;7.20;99.90
52643;DHT22;38531;53.296;6.614;2022-11-28T06:26:04;7.60;99.90
52643;DHT22;38531;53.296;6.614;2022-11-28T06:28:31;7.10;99.90
52643;DHT22;38531;53.296;6.614;2022-11-28T06:30:56;7.10;99.90
52643;DHT22;38531;53.296;6.614;2022-11-28T06:33:22;7.10;99.90
52643;DHT22;38531;53.296;6.614;2022-11-28T06:35:48;7.10;99.90
52643;DHT22;38531;53.296;6.614;2022-11-28T06:38:13;7.90;99.90
52643;DHT22;38531;53.296;6.614;2022-11-28T06:40:39;7.30;99.90
52643;DHT22;38531;53.296;6.614;2022-11-28T06:43:05;8.00;99.90
52643;DHT22;38531;53.296;6.614;2022-11-28T06:45:33;8.00;99.90
52643;DHT22;38531;53.296;6.614;2022-11-28T06:47:59;7.20;99.90
52643;DHT22;38531;53.296;6.614;2022-11-28T06:50:25;7.90;99.90
52643;DHT22;38531;53.296;6.614;2022-11-28T06:52:51;7.20;99.90
52643;DHT22;38531;53.296;6.614;2022-11-28T06:55:18;7.40;99.90
52643;DHT22;38531;53.296;6.614;2022-11-28T06:57:44;7.20;99.90
52643;DHT22;38531;53.296;6.614;2022-11-28T07:00:10;6.50;99.90
52643;DHT22;38531;53.296;6.614;2022-11-28T07:02:36;7.20;99.90
52643;DHT22;38531;53.296;6.614;2022-11-28T07:05:02;8.00;99.90
52643;DHT22;38531;53.296;6.614;2022-11-28T07:07:28;7.20;99.90
52643;DHT22;38531;53.296;6.614;2022-11-28T07:09:53;7.70;99.90
52643;DHT22;38531;53.296;6.614;2022-11-28T07:12:21;7.30;99.90
52643;DHT22;38531;53.296;6.614;2022-11-28T07:14:47;7.40;99.90
52643;DHT22;38531;53.296;6.614;2022-11-28T07:17:13;8.20;99.90
52643;DHT22;38531;53.296;6.614;2022-11-28T07:19:38;8.10;99.90
52643;DHT22;38531;53.296;6.614;2022-11-28T07:22:06;8.00;99.90
52643;DHT22;38531;53.296;6.614;2022-11-28T07:24:34;7.30;99.90
52643;DHT22;38531;53.296;6.614;2022-11-28T07:27:00;8.10;99.90
52643;DHT22;38531;53.296;6.614;2022-11-28T07:29:25;7.30;99.90
52643;DHT22;38531;53.296;6.614;2022-11-28T07:31:57;7.30;99.90
52643;DHT22;38531;53.296;6.614;2022-11-28T07:34:23;8.20;99.90
52643;DHT22;38531;53.296;6.614;2022-11-28T07:36:48;7.60;99.90
52643;DHT22;38531;53.296;6.614;2022-11-28T07:39:15;7.30;99.90
52643;DHT22;38531;53.296;6.614;2022-11-28T07:41:42;7.70;99.90
52643;DHT22;38531;53.296;6.614;2022-11-28T07:44:09;7.70;99.90
52643;DHT22;38531;53.296;6.614;2022-11-28T07:46:35;8.00;99.90
52643;DHT22;38531;53.296;6.614;2022-11-28T07:49:02;8.10;99.90
52643;DHT22;38531;53.296;6.614;2022-11-28T07:51:32;7.40;99.90
52643;DHT22;38531;53.296;6.614;2022-11-28T07:53:59;7.40;99.90
52643;DHT22;38531;53.296;6.614;2022-11-28T07:56:27;7.30;99.90
52643;DHT22;38531;53.296;6.614;2022-11-28T07:58:53;7.60;99.90
52643;DHT22;38531;53.296;6.614;2022-11-28T08:01:24;8.20;99.90
52643;DHT22;38531;53.296;6.614;2022-11-28T08:03:51;7.30;99.90
52643;DHT22;38531;53.296;6.614;2022-11-28T08:06:20;7.40;99.90
52643;DHT22;38531;53.296;6.614;2022-11-28T08:08:47;7.50;99.90
52643;DHT22;38531;53.296;6.614;2022-11-28T08:11:14;7.40;99.90
52643;DHT22;38531;53.296;6.614;2022-11-28T08:13:41;8.10;99.90
52643;DHT22;38531;53.296;6.614;2022-11-28T08:16:11;7.50;99.90
52643;DHT22;38531;53.296;6.614;2022-11-28T08:18:40;8.30;99.90
52643;DHT22;38531;53.296;6.614;2022-11-28T08:21:11;7.50;99.90
52643;DHT22;38531;53.296;6.614;2022-11-28T08:23:47;7.50;99.90
52643;DHT22;38531;53.296;6.614;2022-11-28T08:26:22;6.90;99.90
52643;DHT22;38531;53.296;6.614;2022-11-28T08:28:49;7.50;99.90
52643;DHT22;38531;53.296;6.614;2022-11-28T08:31:20;8.30;99.90
52643;DHT22;38531;53.296;6.614;2022-11-28T08:33:50;8.00;99.90
52643;DHT22;38531;53.296;6.614;2022-11-28T08:36:19;8.20;99.90
52643;DHT22;38531;53.296;6.614;2022-11-28T08:38:46;8.30;99.90
52643;DHT22;38531;53.296;6.614;2022-11-28T08:41:14;8.20;99.90
52643;DHT22;38531;53.296;6.614;2022-11-28T08:43:40;7.70;99.90
52643;DHT22;38531;53.296;6.614;2022-11-28T08:46:09;8.00;99.90
52643;DHT22;38531;53.296;6.614;2022-11-28T08:48:36;6.90;99.90
52643;DHT22;38531;53.296;6.614;2022-11-28T08:51:03;7.80;99.90
52643;DHT22;38531;53.296;6.614;2022-11-28T08:53:28;7.60;99.90
52643;DHT22;38531;53.296;6.614;2022-11-28T08:55:54;8.10;99.90
52643;DHT22;38531;53.296;6.614;2022-11-28T08:58:20;8.10;99.90
52643;DHT22;38531;53.296;6.614;2022-11-28T09:00:46;8.20;99.90
52643;DHT22;38531;53.296;6.614;2022-11-28T09:03:16;7.60;99.90
52643;DHT22;38531;53.296;6.614;2022-11-28T09:05:43;7.60;99.90
52643;DHT22;38531;53.296;6.614;2022-11-28T09:08:11;7.80;99.90
52643;DHT22;38531;53.296;6.614;2022-11-28T09:10:38;8.10;99.90
52643;DHT22;38531;53.296;6.614;2022-11-28T09:13:04;7.60;99.90
52643;DHT22;38531;53.296;6.614;2022-11-28T09:15:31;8.40;99.90
52643;DHT22;38531;53.296;6.614;2022-11-28T09:17:57;7.60;99.90
52643;DHT22;38531;53.296;6.614;2022-11-28T09:20:23;8.50;99.90
52643;DHT22;38531;53.296;6.614;2022-11-28T09:22:49;8.00;99.90
52643;DHT22;38531;53.296;6.614;2022-11-28T09:25:15;8.20;99.90
52643;DHT22;38531;53.296;6.614;2022-11-28T09:27:40;7.70;99.90
52643;DHT22;38531;53.296;6.614;2022-11-28T09:30:07;7.70;99.90
52643;DHT22;38531;53.296;6.614;2022-11-28T09:32:33;7.70;99.90
52643;DHT22;38531;53.296;6.614;2022-11-28T09:34:59;7.70;99.90
52643;DHT22;38531;53.296;6.614;2022-11-28T09:37:27;7.70;99.90
52643;DHT22;38531;53.296;6.614;2022-11-28T09:39:53;8.40;99.90
52643;DHT22;38531;53.296;6.614;2022-11-28T09:42:30;8.20;99.90
52643;DHT22;38531;53.296;6.614;2022-11-28T09:45:04;8.40;99.90
52643;DHT22;38531;53.296;6.614;2022-11-28T09:47:32;7.80;99.90
52643;DHT22;38531;53.296;6.614;2022-11-28T09:50:24;7.80;99.90
52643;DHT22;38531;53.296;6.614;2022-11-28T10:08:51;7.80;99.90
52643;DHT22;38531;53.296;6.614;2022-11-28T10:17:16;7.90;99.90
52643;DHT22;38531;53.296;6.614;2022-11-28T10:20:09;7.90;99.90
52643;DHT22;38531;53.296;6.614;2022-11-28T10:23:29;7.90;99.90
52643;DHT22;38531;53.296;6.614;2022-11-28T10:25:58;7.90;99.90
52643;DHT22;38531;53.296;6.614;2022-11-28T10:28:37;7.90;99.90
52643;DHT22;38531;53.296;6.614;2022-11-28T10:36:29;8.30;99.90
52643;DHT22;38531;53.296;6.614;2022-11-28T10:39:00;8.40;99.90
52643;DHT22;38531;53.296;6.614;2022-11-28T10:41:33;8.00;99.90
52643;DHT22;38531;53.296;6.614;2022-11-28T10:49:36;8.00;99.90
52643;DHT22;38531;53.296;6.614;2022-11-28T11:00:15;8.10;99.90
52643;DHT22;38531;53.296;6.614;2022-11-28T11:02:56;8.10;99.90
52643;DHT22;38531;53.296;6.614;2022-11-28T11:05:27;8.10;99.90
52643;DHT22;38531;53.296;6.614;2022-11-28T11:07:57;8.80;99.90
52643;DHT22;38531;53.296;6.614;2022-11-28T11:10:28;8.20;99.90
52643;DHT22;38531;53.296;6.614;2022-11-28T11:12:54;8.60;99.90
52643;DHT22;38531;53.296;6.614;2022-11-28T11:17:54;8.20;99.90
52643;DHT22;38531;53.296;6.614;2022-11-28T11:20:36;8.40;99.90
52643;DHT22;38531;53.296;6.614;2022-11-28T11:23:16;8.20;99.90
52643;DHT22;38531;53.296;6.614;2022-11-28T11:25:59;8.30;99.90
52643;DHT22;38531;53.296;6.614;2022-11-28T11:28:44;8.90;99.90
52643;DHT22;38531;53.296;6.614;2022-11-28T11:31:31;8.30;99.90
52643;DHT22;38531;53.296;6.614;2022-11-28T11:34:05;7.90;99.90
52643;DHT22;38531;53.296;6.614;2022-11-28T11:36:34;8.30;99.90
52643;DHT22;38531;53.296;6.614;2022-11-28T11:41:37;8.40;99.90
52643;DHT22;38531;53.296;6.614;2022-11-28T11:44:24;8.40;99.90
52643;DHT22;38531;53.296;6.614;2022-11-28T11:46:52;8.90;99.90
52643;DHT22;38531;53.296;6.614;2022-11-28T11:51:55;9.00;99.90
52643;DHT22;38531;53.296;6.614;2022-11-28T11:54:21;9.00;99.90
52643;DHT22;38531;53.296;6.614;2022-11-28T11:56:48;8.90;99.90
52643;DHT22;38531;53.296;6.614;2022-11-28T12:01:51;8.50;99.90
52643;DHT22;38531;53.296;6.614;2022-11-28T12:04:32;8.50;99.90
52643;DHT22;38531;53.296;6.614;2022-11-28T12:07:03;8.50;99.90
52643;DHT22;38531;53.296;6.614;2022-11-28T12:09:49;8.60;99.90
52643;DHT22;38531;53.296;6.614;2022-11-28T12:12:21;8.70;99.90
52643;DHT22;38531;53.296;6.614;2022-11-28T12:14:49;8.50;99.90
52643;DHT22;38531;53.296;6.614;2022-11-28T12:22:53;8.80;99.90
52643;DHT22;38531;53.296;6.614;2022-11-28T12:34:11;8.70;99.90
52643;DHT22;38531;53.296;6.614;2022-11-28T12:44:58;8.80;99.90
52643;DHT22;38531;53.296;6.614;2022-11-28T12:47:39;8.80;99.90
52643;DHT22;38531;53.296;6.614;2022-11-28T12:53:15;8.80;99.90
52643;DHT22;38531;53.296;6.614;2022-11-28T12:55:55;8.90;99.90
52643;DHT22;38531;53.296;6.614;2022-11-28T12:58:28;8.80;99.90
52643;DHT22;38531;53.296;6.614;2022-11-28T13:03:36;9.10;99.90
52643;DHT22;38531;53.296;6.614;2022-11-28T13:09:29;8.90;99.90
52643;DHT22;38531;53.296;6.614;2022-11-28T13:12:28;8.90;99.90
52643;DHT22;38531;53.296;6.614;2022-11-28T13:15:00;8.90;99.90
52643;DHT22;38531;53.296;6.614;2022-11-28T13:20:18;8.90;99.90
52643;DHT22;38531;53.296;6.614;2022-11-28T13:25:32;8.90;99.90
52643;DHT22;38531;53.296;6.614;2022-11-28T13:28:12;8.70;99.90
52643;DHT22;38531;53.296;6.614;2022-11-28T13:30:49;9.00;99.90
52643;DHT22;38531;53.296;6.614;2022-11-28T13:36:23;8.80;99.90
52643;DHT22;38531;53.296;6.614;2022-11-28T13:39:16;9.00;99.90
52643;DHT22;38531;53.296;6.614;2022-11-28T13:47:41;9.00;99.90
52643;DHT22;38531;53.296;6.614;2022-11-28T14:01:08;8.70;99.90
52643;DHT22;38531;53.296;6.614;2022-11-28T14:06:31;9.00;99.90
52643;DHT22;38531;53.296;6.614;2022-11-28T14:18:15;8.90;99.90
52643;DHT22;38531;53.296;6.614;2022-11-28T14:50:51;8.80;99.90
52643;DHT22;38531;53.296;6.614;2022-11-28T14:53:56;9.40;99.90
52643;DHT22;38531;53.296;6.614;2022-11-28T14:56:24;8.80;99.90
52643;DHT22;38531;53.296;6.614;2022-11-28T14:58:55;8.80;99.90
52643;DHT22;38531;53.296;6.614;2022-11-28T15:13:25;8.80;99.90
52643;DHT22;38531;53.296;6.614;2022-11-28T15:16:30;8.80;99.90
52643;DHT22;38531;53.296;6.614;2022-11-28T15:19:25;8.80;99.90
52643;DHT22;38531;53.296;6.614;2022-11-28T15:22:32;8.70;99.90
52643;DHT22;38531;53.296;6.614;2022-11-28T15:25:28;8.70;99.90
52643;DHT22;38531;53.296;6.614;2022-11-28T15:31:39;8.70;99.90
52643;DHT22;38531;53.296;6.614;2022-11-28T15:34:09;9.60;99.90
52643;DHT22;38531;53.296;6.614;2022-11-28T15:39:39;8.40;99.90
52643;DHT22;38531;53.296;6.614;2022-11-28T15:44:45;8.70;99.90
52643;DHT22;38531;53.296;6.614;2022-11-28T15:47:20;8.90;99.90
52643;DHT22;38531;53.296;6.614;2022-11-28T15:52:55;8.30;99.90
52643;DHT22;38531;53.296;6.614;2022-11-28T15:55:21;8.70;99.90
52643;DHT22;38531;53.296;6.614;2022-11-28T15:57:47;8.60;99.90
52643;DHT22;38531;53.296;6.614;2022-11-28T16:00:15;9.00;99.90
52643;DHT22;38531;53.296;6.614;2022-11-28T16:02:42;8.60;99.90
52643;DHT22;38531;53.296;6.614;2022-11-28T16:05:16;8.60;99.90
52643;DHT22;38531;53.296;6.614;2022-11-28T16:07:47;8.30;99.90
52643;DHT22;38531;53.296;6.614;2022-11-28T16:10:23;8.60;99.90
52643;DHT22;38531;53.296;6.614;2022-11-28T16:12:52;8.80;99.90
52643;DHT22;38531;53.296;6.614;2022-11-28T16:15:22;8.50;99.90
52643;DHT22;38531;53.296;6.614;2022-11-28T16:17:48;8.70;99.90
52643;DHT22;38531;53.296;6.614;2022-11-28T16:20:27;8.60;99.90
52643;DHT22;38531;53.296;6.614;2022-11-28T16:23:05;8.60;99.90
52643;DHT22;38531;53.296;6.614;2022-11-28T16:25:33;8.90;99.90
52643;DHT22;38531;53.296;6.614;2022-11-28T16:27:59;9.20;99.90
52643;DHT22;38531;53.296;6.614;2022-11-28T16:30:42;9.30;99.90
52643;DHT22;38531;53.296;6.614;2022-11-28T16:33:40;8.60;99.90
52643;DHT22;38531;53.296;6.614;2022-11-28T16:36:34;8.60;99.90
52643;DHT22;38531;53.296;6.614;2022-11-28T16:41:39;8.60;99.90
52643;DHT22;38531;53.296;6.614;2022-11-28T16:44:10;8.60;99.90
52643;DHT22;38531;53.296;6.614;2022-11-28T16:46:50;8.90;99.90
52643;DHT22;38531;53.296;6.614;2022-11-28T16:50:03;8.50;99.90
52643;DHT22;38531;53.296;6.614;2022-11-28T16:58:34;8.60;99.90
52643;DHT22;38531;53.296;6.614;2022-11-28T17:01:01;8.60;99.90
52643;DHT22;38531;53.296;6.614;2022-11-28T17:03:47;9.20;99.90
52643;DHT22;38531;53.296;6.614;2022-11-28T17:06:25;9.10;99.90
52643;DHT22;38531;53.296;6.614;2022-11-28T17:08:56;8.60;99.90
52643;DHT22;38531;53.296;6.614;2022-11-28T17:14:37;8.60;99.90
52643;DHT22;38531;53.296;6.614;2022-11-28T17:17:14;8.60;99.90
52643;DHT22;38531;53.296;6.614;2022-11-28T17:19:40;8.60;99.90
52643;DHT22;38531;53.296;6.614;2022-11-28T17:22:24;9.20;99.90
52643;DHT22;38531;53.296;6.614;2022-11-28T17:24:55;9.10;99.90
52643;DHT22;38531;53.296;6.614;2022-11-28T17:27:22;9.20;99.90
52643;DHT22;38531;53.296;6.614;2022-11-28T17:29:48;8.90;99.90
52643;DHT22;38531;53.296;6.614;2022-11-28T17:32:13;8.80;99.90
52643;DHT22;38531;53.296;6.614;2022-11-28T17:34:40;9.30;99.90
52643;DHT22;38531;53.296;6.614;2022-11-28T17:37:06;8.50;99.90
52643;DHT22;38531;53.296;6.614;2022-11-28T17:39:33;9.30;99.90
52643;DHT22;38531;53.296;6.614;2022-11-28T17:41:59;8.50;99.90
52643;DHT22;38531;53.296;6.614;2022-11-28T17:44:35;8.90;99.90
52643;DHT22;38531;53.296;6.614;2022-11-28T17:47:02;8.80;99.90
52643;DHT22;38531;53.296;6.614;2022-11-28T17:49:29;8.50;99.90
52643;DHT22;38531;53.296;6.614;2022-11-28T17:51:55;8.90;99.90
52643;DHT22;38531;53.296;6.614;2022-11-28T17:54:23;9.10;99.90
52643;DHT22;38531;53.296;6.614;2022-11-28T17:56:50;8.60;99.90
52643;DHT22;38531;53.296;6.614;2022-11-28T17:59:18;8.50;99.90
52643;DHT22;38531;53.296;6.614;2022-11-28T18:01:44;9.10;99.90
52643;DHT22;38531;53.296;6.614;2022-11-28T18:04:10;8.70;99.90
52643;DHT22;38531;53.296;6.614;2022-11-28T18:06:36;8.50;99.90
52643;DHT22;38531;53.296;6.614;2022-11-28T18:09:04;9.20;99.90
52643;DHT22;38531;53.296;6.614;2022-11-28T18:11:30;8.90;99.90
52643;DHT22;38531;53.296;6.614;2022-11-28T18:13:57;8.50;99.90
52643;DHT22;38531;53.296;6.614;2022-11-28T18:16:24;9.10;99.90
52643;DHT22;38531;53.296;6.614;2022-11-28T18:18:50;8.60;99.90
52643;DHT22;38531;53.296;6.614;2022-11-28T18:21:17;8.80;99.90
52643;DHT22;38531;53.296;6.614;2022-11-28T18:23:45;9.00;99.90
52643;DHT22;38531;53.296;6.614;2022-11-28T18:26:14;9.20;99.90
52643;DHT22;38531;53.296;6.614;2022-11-28T18:28:41;9.40;99.90
52643;DHT22;38531;53.296;6.614;2022-11-28T18:31:09;8.50;99.90
52643;DHT22;38531;53.296;6.614;2022-11-28T18:33:36;8.50;99.90
52643;DHT22;38531;53.296;6.614;2022-11-28T18:36:13;9.40;99.90
52643;DHT22;38531;53.296;6.614;2022-11-28T18:38:40;8.50;99.90
52643;DHT22;38531;53.296;6.614;2022-11-28T18:41:07;8.50;99.90
52643;DHT22;38531;53.296;6.614;2022-11-28T18:43:37;8.80;99.90
52643;DHT22;38531;53.296;6.614;2022-11-28T18:46:08;8.60;99.90
52643;DHT22;38531;53.296;6.614;2022-11-28T18:48:39;8.50;99.90
52643;DHT22;38531;53.296;6.614;2022-11-28T18:51:17;9.40;99.90
52643;DHT22;38531;53.296;6.614;2022-11-28T18:53:43;8.50;99.90
52643;DHT22;38531;53.296;6.614;2022-11-28T18:56:10;9.30;99.90
52643;DHT22;38531;53.296;6.614;2022-11-28T18:58:38;8.50;99.90
52643;DHT22;38531;53.296;6.614;2022-11-28T19:01:20;9.20;99.90
52643;DHT22;38531;53.296;6.614;2022-11-28T19:03:51;8.80;99.90
52643;DHT22;38531;53.296;6.614;2022-11-28T19:06:18;8.50;99.90
52643;DHT22;38531;53.296;6.614;2022-11-28T19:08:44;8.50;99.90
52643;DHT22;38531;53.296;6.614;2022-11-28T19:11:12;8.90;99.90
52643;DHT22;38531;53.296;6.614;2022-11-28T19:13:43;8.60;99.90
52643;DHT22;38531;53.296;6.614;2022-11-28T19:16:15;8.50;99.90
52643;DHT22;38531;53.296;6.614;2022-11-28T19:18:42;9.30;99.90
52643;DHT22;38531;53.296;6.614;2022-11-28T19:21:11;8.90;99.90
52643;DHT22;38531;53.296;6.614;2022-11-28T19:23:38;8.60;99.90
52643;DHT22;38531;53.296;6.614;2022-11-28T19:26:12;8.50;99.90
52643;DHT22;38531;53.296;6.614;2022-11-28T19:28:39;8.60;99.90
52643;DHT22;38531;53.296;6.614;2022-11-28T19:31:07;8.70;99.90
52643;DHT22;38531;53.296;6.614;2022-11-28T19:33:33;9.40;99.90
52643;DHT22;38531;53.296;6.614;2022-11-28T19:36:06;8.50;99.90
52643;DHT22;38531;53.296;6.614;2022-11-28T19:38:33;8.50;99.90
52643;DHT22;38531;53.296;6.614;2022-11-28T19:41:11;8.60;99.90
52643;DHT22;38531;53.296;6.614;2022-11-28T19:43:37;8.50;99.90
52643;DHT22;38531;53.296;6.614;2022-11-28T19:46:03;8.70;99.90
52643;DHT22;38531;53.296;6.614;2022-11-28T19:48:30;8.50;99.90
52643;DHT22;38531;53.296;6.614;2022-11-28T19:50:57;8.50;99.90
52643;DHT22;38531;53.296;6.614;2022-11-28T19:53:23;9.10;99.90
52643;DHT22;38531;53.296;6.614;2022-11-28T19:55:49;8.50;99.90
52643;DHT22;38531;53.296;6.614;2022-11-28T19:58:16;8.60;99.90
52643;DHT22;38531;53.296;6.614;2022-11-28T20:00:42;9.00;99.90
52643;DHT22;38531;53.296;6.614;2022-11-28T20:03:08;8.90;99.90
52643;DHT22;38531;53.296;6.614;2022-11-28T20:05:35;8.50;99.90
52643;DHT22;38531;53.296;6.614;2022-11-28T20:08:02;8.70;99.90